CheckWX is a tool to help pilots better visualize weather data.  It is not intended as a substitute for an official pre-flight weather briefing.

02:51:12 UTC

KAFJ METAR
Washington County Airport
Washington, Pennsylvania, USA
Current

55 mins ago

KAFJ 230156Z AUTO 00000KT 10SM CLR 20/17 A3005 RMK AO2 SLP168 T02000172
Observed
Sep-23 @ 01:56 UTC
Visibility
10 SM
Flight Rules
VFR
Cloud Levels
  • Clear skies
Temperature
20°C / 68°F
Dewpoint
17°C / 63°F
Humidity
83%
Altimeter
30.05" Hg
Pressure
1017.62 hPa
Previous

2 hours ago

KAFJ 230056Z AUTO 20003KT 10SM CLR 22/17 A3006 RMK AO2 SLP171 T02170172
Observed
Sep-23 @ 00:56 UTC
Wind
  • 200° at 3 KTS
Visibility
10 SM
Flight Rules
VFR
Cloud Levels
  • Clear skies
Temperature
22°C / 72°F
Dewpoint
17°C / 63°F
Humidity
73%
Altimeter
30.06" Hg
Pressure
1017.92 hPa
Previous

3 hours ago

KAFJ 222356Z AUTO 20003KT 10SM CLR 24/17 A3005 RMK AO2 SLP169 T02440172 10311 20244 58005
Observed
Sep-22 @ 23:56 UTC
Wind
  • 200° at 3 KTS
Visibility
10 SM
Flight Rules
VFR
Cloud Levels
  • Clear skies
Temperature
24°C / 75°F
Dewpoint
17°C / 63°F
Humidity
65%
Altimeter
30.05" Hg
Pressure
1017.62 hPa